sensor_id;sensor_type;location;lat;lon;timestamp;temperature;humidity
60965;DHT22;46834;51.100;6.886;2023-02-08T00:01:21;1.70;37.30
60965;DHT22;46834;51.100;6.886;2023-02-08T00:03:48;1.60;37.30
60965;DHT22;46834;51.100;6.886;2023-02-08T00:06:15;1.60;37.30
60965;DHT22;46834;51.100;6.886;2023-02-08T00:08:41;1.60;37.30
60965;DHT22;46834;51.100;6.886;2023-02-08T00:11:07;1.60;37.40
60965;DHT22;46834;51.100;6.886;2023-02-08T00:13:37;1.60;37.40
60965;DHT22;46834;51.100;6.886;2023-02-08T00:16:05;1.60;37.40
60965;DHT22;46834;51.100;6.886;2023-02-08T00:18:31;1.50;37.40
60965;DHT22;46834;51.100;6.886;2023-02-08T00:20:56;1.50;37.50
60965;DHT22;46834;51.100;6.886;2023-02-08T00:23:23;1.50;37.50
60965;DHT22;46834;51.100;6.886;2023-02-08T00:25:49;1.50;37.60
60965;DHT22;46834;51.100;6.886;2023-02-08T00:28:18;1.50;37.60
60965;DHT22;46834;51.100;6.886;2023-02-08T00:30:44;1.50;37.60
60965;DHT22;46834;51.100;6.886;2023-02-08T00:33:10;1.50;37.60
60965;DHT22;46834;51.100;6.886;2023-02-08T00:35:36;1.40;37.60
60965;DHT22;46834;51.100;6.886;2023-02-08T00:38:03;1.40;37.60
60965;DHT22;46834;51.100;6.886;2023-02-08T00:40:29;1.40;37.60
60965;DHT22;46834;51.100;6.886;2023-02-08T00:42:54;1.40;37.60
60965;DHT22;46834;51.100;6.886;2023-02-08T00:45:20;1.40;37.70
60965;DHT22;46834;51.100;6.886;2023-02-08T00:47:46;1.40;37.70
60965;DHT22;46834;51.100;6.886;2023-02-08T00:50:11;1.40;37.70
60965;DHT22;46834;51.100;6.886;2023-02-08T00:52:37;1.40;37.80
60965;DHT22;46834;51.100;6.886;2023-02-08T00:55:04;1.40;37.80
60965;DHT22;46834;51.100;6.886;2023-02-08T00:57:34;1.40;37.80
60965;DHT22;46834;51.100;6.886;2023-02-08T01:00:00;1.40;37.90
60965;DHT22;46834;51.100;6.886;2023-02-08T01:02:26;1.40;37.90
60965;DHT22;46834;51.100;6.886;2023-02-08T01:04:52;1.40;37.90
60965;DHT22;46834;51.100;6.886;2023-02-08T01:07:18;1.40;37.90
60965;DHT22;46834;51.100;6.886;2023-02-08T01:09:43;1.40;38.00
60965;DHT22;46834;51.100;6.886;2023-02-08T01:12:09;1.40;38.00
60965;DHT22;46834;51.100;6.886;2023-02-08T01:14:36;1.50;38.10
60965;DHT22;46834;51.100;6.886;2023-02-08T01:17:03;1.50;38.10
60965;DHT22;46834;51.100;6.886;2023-02-08T01:19:29;1.50;38.10
60965;DHT22;46834;51.100;6.886;2023-02-08T01:21:55;1.50;38.10
60965;DHT22;46834;51.100;6.886;2023-02-08T01:24:21;1.50;38.00
60965;DHT22;46834;51.100;6.886;2023-02-08T01:26:46;1.50;38.00
60965;DHT22;46834;51.100;6.886;2023-02-08T01:29:12;1.50;37.90
60965;DHT22;46834;51.100;6.886;2023-02-08T01:31:39;1.50;37.90
60965;DHT22;46834;51.100;6.886;2023-02-08T01:34:07;1.50;37.90
60965;DHT22;46834;51.100;6.886;2023-02-08T01:36:34;1.50;37.80
60965;DHT22;46834;51.100;6.886;2023-02-08T01:39:01;1.50;37.90
60965;DHT22;46834;51.100;6.886;2023-02-08T01:41:29;1.50;37.80
60965;DHT22;46834;51.100;6.886;2023-02-08T01:46:37;1.50;37.90
60965;DHT22;46834;51.100;6.886;2023-02-08T01:49:10;1.40;37.90
60965;DHT22;46834;51.100;6.886;2023-02-08T01:51:45;1.40;37.90
60965;DHT22;46834;51.100;6.886;2023-02-08T01:54:15;1.40;38.00
60965;DHT22;46834;51.100;6.886;2023-02-08T01:56:45;1.40;37.90
60965;DHT22;46834;51.100;6.886;2023-02-08T01:59:16;1.40;38.00
60965;DHT22;46834;51.100;6.886;2023-02-08T02:01:50;1.40;38.00
60965;DHT22;46834;51.100;6.886;2023-02-08T02:04:18;1.40;38.00
60965;DHT22;46834;51.100;6.886;2023-02-08T02:06:53;1.30;37.90
60965;DHT22;46834;51.100;6.886;2023-02-08T02:12:08;1.30;38.00
60965;DHT22;46834;51.100;6.886;2023-02-08T02:14:36;1.30;38.00
60965;DHT22;46834;51.100;6.886;2023-02-08T02:17:03;1.30;38.00
60965;DHT22;46834;51.100;6.886;2023-02-08T02:28:00;1.30;38.00
60965;DHT22;46834;51.100;6.886;2023-02-08T02:31:53;1.20;38.00
60965;DHT22;46834;51.100;6.886;2023-02-08T02:35:12;1.20;38.00
60965;DHT22;46834;51.100;6.886;2023-02-08T02:43:28;1.20;38.00
60965;DHT22;46834;51.100;6.886;2023-02-08T02:46:37;1.20;38.20
60965;DHT22;46834;51.100;6.886;2023-02-08T02:49:14;1.20;38.20
60965;DHT22;46834;51.100;6.886;2023-02-08T02:52:07;1.20;38.20
60965;DHT22;46834;51.100;6.886;2023-02-08T02:54:43;1.20;38.30
60965;DHT22;46834;51.100;6.886;2023-02-08T02:57:20;1.20;38.30
60965;DHT22;46834;51.100;6.886;2023-02-08T02:59:50;1.20;38.30
60965;DHT22;46834;51.100;6.886;2023-02-08T03:02:16;1.10;38.20
60965;DHT22;46834;51.100;6.886;2023-02-08T03:07:23;1.10;38.30
60965;DHT22;46834;51.100;6.886;2023-02-08T03:13:37;1.10;38.40
60965;DHT22;46834;51.100;6.886;2023-02-08T03:16:25;1.10;38.30
60965;DHT22;46834;51.100;6.886;2023-02-08T03:22:11;1.00;38.10
60965;DHT22;46834;51.100;6.886;2023-02-08T03:24:53;1.00;38.10
60965;DHT22;46834;51.100;6.886;2023-02-08T03:27:37;1.00;38.20
60965;DHT22;46834;51.100;6.886;2023-02-08T03:30:19;1.00;38.20
60965;DHT22;46834;51.100;6.886;2023-02-08T03:33:01;0.90;38.10
60965;DHT22;46834;51.100;6.886;2023-02-08T03:35:47;0.90;38.10
60965;DHT22;46834;51.100;6.886;2023-02-08T03:38:26;0.90;38.20
60965;DHT22;46834;51.100;6.886;2023-02-08T03:40:59;0.80;38.10
60965;DHT22;46834;51.100;6.886;2023-02-08T03:46:20;0.80;38.20
60965;DHT22;46834;51.100;6.886;2023-02-08T03:48:58;0.80;38.20
60965;DHT22;46834;51.100;6.886;2023-02-08T03:51:28;0.70;38.20
60965;DHT22;46834;51.100;6.886;2023-02-08T03:53:57;0.70;38.20
60965;DHT22;46834;51.100;6.886;2023-02-08T03:59:43;0.60;38.30
60965;DHT22;46834;51.100;6.886;2023-02-08T04:02:17;0.70;38.30
60965;DHT22;46834;51.100;6.886;2023-02-08T04:04:48;0.70;38.40
60965;DHT22;46834;51.100;6.886;2023-02-08T04:07:16;0.60;38.30
60965;DHT22;46834;51.100;6.886;2023-02-08T04:09:43;0.60;38.30
60965;DHT22;46834;51.100;6.886;2023-02-08T04:12:09;0.60;39.00
60965;DHT22;46834;51.100;6.886;2023-02-08T04:14:35;0.60;38.40
60965;DHT22;46834;51.100;6.886;2023-02-08T04:17:01;0.60;38.40
60965;DHT22;46834;51.100;6.886;2023-02-08T04:19:26;0.60;38.30
60965;DHT22;46834;51.100;6.886;2023-02-08T04:21:52;0.60;38.30
60965;DHT22;46834;51.100;6.886;2023-02-08T04:24:18;0.60;38.30
60965;DHT22;46834;51.100;6.886;2023-02-08T04:26:44;0.60;38.30
60965;DHT22;46834;51.100;6.886;2023-02-08T04:29:10;0.60;38.30
60965;DHT22;46834;51.100;6.886;2023-02-08T04:31:36;0.60;38.30
60965;DHT22;46834;51.100;6.886;2023-02-08T04:34:01;0.60;38.30
60965;DHT22;46834;51.100;6.886;2023-02-08T04:36:27;0.70;38.40
60965;DHT22;46834;51.100;6.886;2023-02-08T04:38:53;0.60;38.40
60965;DHT22;46834;51.100;6.886;2023-02-08T04:41:19;0.70;38.40
60965;DHT22;46834;51.100;6.886;2023-02-08T04:43:44;0.60;38.30
60965;DHT22;46834;51.100;6.886;2023-02-08T04:46:10;0.70;38.40
60965;DHT22;46834;51.100;6.886;2023-02-08T04:48:36;0.70;38.40
60965;DHT22;46834;51.100;6.886;2023-02-08T04:51:02;0.60;38.30
60965;DHT22;46834;51.100;6.886;2023-02-08T04:53:27;0.70;38.30
60965;DHT22;46834;51.100;6.886;2023-02-08T04:55:53;0.70;38.30
60965;DHT22;46834;51.100;6.886;2023-02-08T04:58:19;0.70;38.40
60965;DHT22;46834;51.100;6.886;2023-02-08T05:00:45;0.60;38.30
60965;DHT22;46834;51.100;6.886;2023-02-08T05:03:11;0.60;38.30
60965;DHT22;46834;51.100;6.886;2023-02-08T05:05:36;0.60;38.30
60965;DHT22;46834;51.100;6.886;2023-02-08T05:08:02;0.60;38.30
60965;DHT22;46834;51.100;6.886;2023-02-08T05:10:28;0.60;38.30
60965;DHT22;46834;51.100;6.886;2023-02-08T05:12:54;0.60;38.40
60965;DHT22;46834;51.100;6.886;2023-02-08T05:15:21;0.60;38.40
60965;DHT22;46834;51.100;6.886;2023-02-08T05:17:46;0.60;38.40
60965;DHT22;46834;51.100;6.886;2023-02-08T05:20:13;0.60;38.40
60965;DHT22;46834;51.100;6.886;2023-02-08T05:22:39;0.60;38.40
60965;DHT22;46834;51.100;6.886;2023-02-08T05:25:06;0.60;38.40
60965;DHT22;46834;51.100;6.886;2023-02-08T05:27:32;0.60;38.40
60965;DHT22;46834;51.100;6.886;2023-02-08T05:29:59;0.60;38.40
60965;DHT22;46834;51.100;6.886;2023-02-08T05:32:25;0.50;38.40
60965;DHT22;46834;51.100;6.886;2023-02-08T05:34:51;0.50;38.40
60965;DHT22;46834;51.100;6.886;2023-02-08T05:37:17;0.50;38.30
60965;DHT22;46834;51.100;6.886;2023-02-08T05:39:43;0.50;38.30
60965;DHT22;46834;51.100;6.886;2023-02-08T05:42:08;0.50;38.30
60965;DHT22;46834;51.100;6.886;2023-02-08T05:44:34;0.50;38.20
60965;DHT22;46834;51.100;6.886;2023-02-08T05:46:59;0.50;38.30
60965;DHT22;46834;51.100;6.886;2023-02-08T05:49:26;0.50;38.30
60965;DHT22;46834;51.100;6.886;2023-02-08T05:51:51;0.50;38.30
60965;DHT22;46834;51.100;6.886;2023-02-08T05:54:17;0.50;38.30
60965;DHT22;46834;51.100;6.886;2023-02-08T05:56:43;0.50;38.30
60965;DHT22;46834;51.100;6.886;2023-02-08T05:59:09;0.50;38.30
60965;DHT22;46834;51.100;6.886;2023-02-08T06:01:36;0.40;38.30
60965;DHT22;46834;51.100;6.886;2023-02-08T06:04:01;0.40;38.80
60965;DHT22;46834;51.100;6.886;2023-02-08T06:06:27;0.40;38.30
60965;DHT22;46834;51.100;6.886;2023-02-08T06:08:53;0.40;38.30
60965;DHT22;46834;51.100;6.886;2023-02-08T06:11:19;0.40;38.30
60965;DHT22;46834;51.100;6.886;2023-02-08T06:13:45;0.40;38.30
60965;DHT22;46834;51.100;6.886;2023-02-08T06:16:13;0.40;38.30
60965;DHT22;46834;51.100;6.886;2023-02-08T06:18:39;0.40;38.30
60965;DHT22;46834;51.100;6.886;2023-02-08T06:21:04;0.40;38.30
60965;DHT22;46834;51.100;6.886;2023-02-08T06:23:31;0.40;38.30
60965;DHT22;46834;51.100;6.886;2023-02-08T06:25:57;0.30;38.20
60965;DHT22;46834;51.100;6.886;2023-02-08T06:28:23;0.30;38.20
60965;DHT22;46834;51.100;6.886;2023-02-08T06:30:49;0.30;38.20
60965;DHT22;46834;51.100;6.886;2023-02-08T06:33:17;0.30;38.20
60965;DHT22;46834;51.100;6.886;2023-02-08T06:35:49;0.30;38.30
60965;DHT22;46834;51.100;6.886;2023-02-08T06:38:16;0.30;38.90
60965;DHT22;46834;51.100;6.886;2023-02-08T06:40:42;0.30;38.30
60965;DHT22;46834;51.100;6.886;2023-02-08T06:43:08;0.30;38.30
60965;DHT22;46834;51.100;6.886;2023-02-08T06:45:33;0.30;38.40
60965;DHT22;46834;51.100;6.886;2023-02-08T06:47:59;0.30;38.40
60965;DHT22;46834;51.100;6.886;2023-02-08T06:50:25;0.30;38.40
60965;DHT22;46834;51.100;6.886;2023-02-08T06:52:50;0.30;38.50
60965;DHT22;46834;51.100;6.886;2023-02-08T06:55:16;0.30;38.50
60965;DHT22;46834;51.100;6.886;2023-02-08T06:57:42;0.30;38.50
60965;DHT22;46834;51.100;6.886;2023-02-08T07:00:08;0.30;38.50
60965;DHT22;46834;51.100;6.886;2023-02-08T07:02:34;0.30;38.50
60965;DHT22;46834;51.100;6.886;2023-02-08T07:05:00;0.30;38.50
60965;DHT22;46834;51.100;6.886;2023-02-08T07:07:26;0.30;38.50
60965;DHT22;46834;51.100;6.886;2023-02-08T07:09:52;0.30;38.50
60965;DHT22;46834;51.100;6.886;2023-02-08T07:12:18;0.30;38.50
60965;DHT22;46834;51.100;6.886;2023-02-08T07:14:44;0.30;38.60
60965;DHT22;46834;51.100;6.886;2023-02-08T07:17:10;0.30;38.60
60965;DHT22;46834;51.100;6.886;2023-02-08T07:19:38;0.40;38.70
60965;DHT22;46834;51.100;6.886;2023-02-08T07:22:04;0.40;38.70
60965;DHT22;46834;51.100;6.886;2023-02-08T07:24:39;0.40;38.80
60965;DHT22;46834;51.100;6.886;2023-02-08T07:27:08;0.40;38.80
60965;DHT22;46834;51.100;6.886;2023-02-08T07:29:35;0.40;38.70
60965;DHT22;46834;51.100;6.886;2023-02-08T07:32:01;0.40;38.70
60965;DHT22;46834;51.100;6.886;2023-02-08T07:34:30;0.40;38.70
60965;DHT22;46834;51.100;6.886;2023-02-08T07:36:58;0.50;38.80
60965;DHT22;46834;51.100;6.886;2023-02-08T07:39:24;0.50;38.80
60965;DHT22;46834;51.100;6.886;2023-02-08T07:41:50;0.50;38.80
60965;DHT22;46834;51.100;6.886;2023-02-08T07:44:16;0.50;38.80
60965;DHT22;46834;51.100;6.886;2023-02-08T07:46:41;0.60;38.90
60965;DHT22;46834;51.100;6.886;2023-02-08T07:49:07;0.60;38.90
60965;DHT22;46834;51.100;6.886;2023-02-08T07:51:33;0.60;39.00
60965;DHT22;46834;51.100;6.886;2023-02-08T07:53:58;0.60;39.00
60965;DHT22;46834;51.100;6.886;2023-02-08T07:56:24;0.70;39.10
60965;DHT22;46834;51.100;6.886;2023-02-08T07:58:50;0.70;39.00
60965;DHT22;46834;51.100;6.886;2023-02-08T08:01:16;0.80;39.10
60965;DHT22;46834;51.100;6.886;2023-02-08T08:03:41;0.80;39.20
60965;DHT22;46834;51.100;6.886;2023-02-08T08:06:07;0.80;39.20
60965;DHT22;46834;51.100;6.886;2023-02-08T08:08:33;0.90;39.30
60965;DHT22;46834;51.100;6.886;2023-02-08T08:10:59;1.00;39.30
60965;DHT22;46834;51.100;6.886;2023-02-08T08:13:24;1.00;39.30
60965;DHT22;46834;51.100;6.886;2023-02-08T08:15:50;1.10;39.30
60965;DHT22;46834;51.100;6.886;2023-02-08T08:18:16;1.10;39.30
60965;DHT22;46834;51.100;6.886;2023-02-08T08:20:41;1.20;39.40
60965;DHT22;46834;51.100;6.886;2023-02-08T08:23:08;1.20;39.40
60965;DHT22;46834;51.100;6.886;2023-02-08T08:25:33;1.30;39.40
60965;DHT22;46834;51.100;6.886;2023-02-08T08:28:00;1.40;39.40
60965;DHT22;46834;51.100;6.886;2023-02-08T08:30:26;1.40;39.40
60965;DHT22;46834;51.100;6.886;2023-02-08T08:32:52;1.50;39.40
60965;DHT22;46834;51.100;6.886;2023-02-08T08:35:18;1.50;39.30
60965;DHT22;46834;51.100;6.886;2023-02-08T08:37:44;1.60;39.40
60965;DHT22;46834;51.100;6.886;2023-02-08T08:40:10;1.70;39.40
60965;DHT22;46834;51.100;6.886;2023-02-08T08:42:36;1.70;39.30
60965;DHT22;46834;51.100;6.886;2023-02-08T08:45:04;1.80;39.30
60965;DHT22;46834;51.100;6.886;2023-02-08T08:47:31;1.80;39.30
60965;DHT22;46834;51.100;6.886;2023-02-08T08:49:57;1.80;39.20
60965;DHT22;46834;51.100;6.886;2023-02-08T08:52:23;1.90;39.20
60965;DHT22;46834;51.100;6.886;2023-02-08T08:54:48;2.00;39.20
60965;DHT22;46834;51.100;6.886;2023-02-08T08:57:15;2.00;39.20
60965;DHT22;46834;51.100;6.886;2023-02-08T08:59:41;2.00;39.20
60965;DHT22;46834;51.100;6.886;2023-02-08T09:02:08;2.10;39.10
60965;DHT22;46834;51.100;6.886;2023-02-08T09:04:36;2.10;39.10
60965;DHT22;46834;51.100;6.886;2023-02-08T09:07:02;2.20;39.20
60965;DHT22;46834;51.100;6.886;2023-02-08T09:09:27;2.30;39.20
60965;DHT22;46834;51.100;6.886;2023-02-08T09:11:53;2.30;39.00
60965;DHT22;46834;51.100;6.886;2023-02-08T09:14:19;2.40;39.00
60965;DHT22;46834;51.100;6.886;2023-02-08T09:16:44;2.50;39.10
60965;DHT22;46834;51.100;6.886;2023-02-08T09:19:13;2.50;39.00
60965;DHT22;46834;51.100;6.886;2023-02-08T09:21:39;2.60;39.00
60965;DHT22;46834;51.100;6.886;2023-02-08T09:24:05;2.70;39.70
60965;DHT22;46834;51.100;6.886;2023-02-08T09:26:31;2.80;39.00
60965;DHT22;46834;51.100;6.886;2023-02-08T09:28:58;2.80;38.90
60965;DHT22;46834;51.100;6.886;2023-02-08T09:31:26;2.90;38.90
60965;DHT22;46834;51.100;6.886;2023-02-08T09:33:55;2.90;38.70
60965;DHT22;46834;51.100;6.886;2023-02-08T09:36:25;3.00;38.70
60965;DHT22;46834;51.100;6.886;2023-02-08T09:38:55;3.10;38.60
60965;DHT22;46834;51.100;6.886;2023-02-08T09:47:34;3.30;38.40
60965;DHT22;46834;51.100;6.886;2023-02-08T09:50:16;3.40;38.40
60965;DHT22;46834;51.100;6.886;2023-02-08T09:53:01;3.50;38.20
60965;DHT22;46834;51.100;6.886;2023-02-08T10:01:07;3.70;38.00
60965;DHT22;46834;51.100;6.886;2023-02-08T10:03:43;3.70;38.20
60965;DHT22;46834;51.100;6.886;2023-02-08T10:06:13;3.80;38.20
60965;DHT22;46834;51.100;6.886;2023-02-08T10:08:41;3.90;38.10
60965;DHT22;46834;51.100;6.886;2023-02-08T10:13:55;4.00;37.80
60965;DHT22;46834;51.100;6.886;2023-02-08T10:16:58;4.10;38.10
60965;DHT22;46834;51.100;6.886;2023-02-08T10:19:42;4.20;37.70
60965;DHT22;46834;51.100;6.886;2023-02-08T10:22:47;4.30;37.60
60965;DHT22;46834;51.100;6.886;2023-02-08T10:31:14;4.70;38.10
60965;DHT22;46834;51.100;6.886;2023-02-08T10:34:42;4.80;37.80
60965;DHT22;46834;51.100;6.886;2023-02-08T10:36:45;5.00;38.10
60965;DHT22;46834;51.100;6.886;2023-02-08T10:39:17;5.10;38.00
60965;DHT22;46834;51.100;6.886;2023-02-08T10:41:50;5.20;38.10
60965;DHT22;46834;51.100;6.886;2023-02-08T10:52:45;5.60;37.10
60965;DHT22;46834;51.100;6.886;2023-02-08T10:55:17;5.60;37.10
60965;DHT22;46834;51.100;6.886;2023-02-08T10:57:46;5.70;36.80
60965;DHT22;46834;51.100;6.886;2023-02-08T11:00:20;5.70;36.80
60965;DHT22;46834;51.100;6.886;2023-02-08T11:02:50;5.80;36.50
60965;DHT22;46834;51.100;6.886;2023-02-08T11:05:36;5.80;36.80
60965;DHT22;46834;51.100;6.886;2023-02-08T11:08:11;5.90;35.90
60965;DHT22;46834;51.100;6.886;2023-02-08T11:11:04;5.90;36.20
60965;DHT22;46834;51.100;6.886;2023-02-08T11:13:39;6.00;34.90
60965;DHT22;46834;51.100;6.886;2023-02-08T11:16:12;6.10;35.60
60965;DHT22;46834;51.100;6.886;2023-02-08T11:18:52;6.10;35.60
60965;DHT22;46834;51.100;6.886;2023-02-08T11:21:27;6.20;35.30
60965;DHT22;46834;51.100;6.886;2023-02-08T11:23:58;6.20;35.80
60965;DHT22;46834;51.100;6.886;2023-02-08T11:29:18;6.40;35.60
60965;DHT22;46834;51.100;6.886;2023-02-08T11:34:36;6.60;35.00
60965;DHT22;46834;51.100;6.886;2023-02-08T11:37:17;6.70;34.90
60965;DHT22;46834;51.100;6.886;2023-02-08T11:39:56;6.90;34.80
60965;DHT22;46834;51.100;6.886;2023-02-08T11:42:24;6.90;35.00
60965;DHT22;46834;51.100;6.886;2023-02-08T11:44:54;7.00;35.20
60965;DHT22;46834;51.100;6.886;2023-02-08T11:47:25;7.10;34.90
60965;DHT22;46834;51.100;6.886;2023-02-08T11:49:55;7.10;34.70
60965;DHT22;46834;51.100;6.886;2023-02-08T11:52:42;7.20;34.60
60965;DHT22;46834;51.100;6.886;2023-02-08T11:55:31;7.20;34.50
60965;DHT22;46834;51.100;6.886;2023-02-08T11:58:04;7.30;33.50
60965;DHT22;46834;51.100;6.886;2023-02-08T12:00:59;7.30;33.80
60965;DHT22;46834;51.100;6.886;2023-02-08T12:03:38;7.40;33.40
60965;DHT22;46834;51.100;6.886;2023-02-08T12:21:21;7.70;33.00
60965;DHT22;46834;51.100;6.886;2023-02-08T12:23:54;7.90;32.90
60965;DHT22;46834;51.100;6.886;2023-02-08T12:26:53;8.10;33.80
60965;DHT22;46834;51.100;6.886;2023-02-08T12:36:11;8.60;32.90
60965;DHT22;46834;51.100;6.886;2023-02-08T12:53:19;9.20;31.90
60965;DHT22;46834;51.100;6.886;2023-02-08T12:56:10;9.20;31.90
60965;DHT22;46834;51.100;6.886;2023-02-08T12:58:46;9.10;32.00
60965;DHT22;46834;51.100;6.886;2023-02-08T13:04:13;9.10;31.90
60965;DHT22;46834;51.100;6.886;2023-02-08T13:06:51;9.20;32.10
60965;DHT22;46834;51.100;6.886;2023-02-08T13:12:23;9.20;31.70
60965;DHT22;46834;51.100;6.886;2023-02-08T13:15:06;9.30;31.60
60965;DHT22;46834;51.100;6.886;2023-02-08T13:17:55;9.30;31.50
60965;DHT22;46834;51.100;6.886;2023-02-08T13:20:48;9.30;31.20
60965;DHT22;46834;51.100;6.886;2023-02-08T13:23:26;9.30;31.40
60965;DHT22;46834;51.100;6.886;2023-02-08T13:25:59;9.30;31.10
60965;DHT22;46834;51.100;6.886;2023-02-08T13:28:30;9.30;31.30
60965;DHT22;46834;51.100;6.886;2023-02-08T13:31:06;9.30;31.50
60965;DHT22;46834;51.100;6.886;2023-02-08T13:33:44;9.30;30.80
60965;DHT22;46834;51.100;6.886;2023-02-08T13:36:38;9.30;31.00
60965;DHT22;46834;51.100;6.886;2023-02-08T13:39:38;9.20;30.50
60965;DHT22;46834;51.100;6.886;2023-02-08T13:42:28;9.20;30.40
60965;DHT22;46834;51.100;6.886;2023-02-08T13:45:01;9.30;30.70
60965;DHT22;46834;51.100;6.886;2023-02-08T13:47:42;9.30;31.40
60965;DHT22;46834;51.100;6.886;2023-02-08T13:53:08;9.30;30.70
60965;DHT22;46834;51.100;6.886;2023-02-08T13:55:38;9.30;31.00
60965;DHT22;46834;51.100;6.886;2023-02-08T14:03:23;9.30;30.00
60965;DHT22;46834;51.100;6.886;2023-02-08T14:12:19;9.30;30.00
60965;DHT22;46834;51.100;6.886;2023-02-08T14:17:44;9.30;29.90
60965;DHT22;46834;51.100;6.886;2023-02-08T14:20:24;9.30;30.10
60965;DHT22;46834;51.100;6.886;2023-02-08T14:23:03;9.30;29.90
60965;DHT22;46834;51.100;6.886;2023-02-08T14:25:44;9.30;30.00
60965;DHT22;46834;51.100;6.886;2023-02-08T14:28:31;9.30;29.60
60965;DHT22;46834;51.100;6.886;2023-02-08T14:31:03;9.30;29.80
60965;DHT22;46834;51.100;6.886;2023-02-08T14:33:35;9.30;30.10
60965;DHT22;46834;51.100;6.886;2023-02-08T14:36:07;9.30;30.00
60965;DHT22;46834;51.100;6.886;2023-02-08T14:39:20;9.30;30.00
60965;DHT22;46834;51.100;6.886;2023-02-08T14:41:54;9.30;30.00
60965;DHT22;46834;51.100;6.886;2023-02-08T14:49:51;9.30;29.40
60965;DHT22;46834;51.100;6.886;2023-02-08T14:52:38;9.30;30.00
60965;DHT22;46834;51.100;6.886;2023-02-08T14:55:20;9.30;30.00
60965;DHT22;46834;51.100;6.886;2023-02-08T14:57:56;9.30;29.80
60965;DHT22;46834;51.100;6.886;2023-02-08T15:00:27;9.30;29.80
60965;DHT22;46834;51.100;6.886;2023-02-08T15:02:57;9.30;29.90
60965;DHT22;46834;51.100;6.886;2023-02-08T15:05:27;9.30;30.00
60965;DHT22;46834;51.100;6.886;2023-02-08T15:07:56;9.30;29.90
60965;DHT22;46834;51.100;6.886;2023-02-08T15:10:28;9.30;29.80
60965;DHT22;46834;51.100;6.886;2023-02-08T15:13:01;9.30;29.90
60965;DHT22;46834;51.100;6.886;2023-02-08T15:15:37;9.30;29.80
60965;DHT22;46834;51.100;6.886;2023-02-08T15:18:13;9.30;29.60
60965;DHT22;46834;51.100;6.886;2023-02-08T15:20:42;9.30;29.70
60965;DHT22;46834;51.100;6.886;2023-02-08T15:23:23;9.40;29.80
60965;DHT22;46834;51.100;6.886;2023-02-08T15:25:58;9.40;29.30
60965;DHT22;46834;51.100;6.886;2023-02-08T15:28:30;9.40;29.40
60965;DHT22;46834;51.100;6.886;2023-02-08T15:31:02;9.30;29.70
60965;DHT22;46834;51.100;6.886;2023-02-08T15:33:31;9.30;29.50
60965;DHT22;46834;51.100;6.886;2023-02-08T15:36:04;9.30;29.70
60965;DHT22;46834;51.100;6.886;2023-02-08T15:38:32;9.30;29.70
60965;DHT22;46834;51.100;6.886;2023-02-08T15:41:07;9.30;29.70
60965;DHT22;46834;51.100;6.886;2023-02-08T15:43:36;9.30;29.40
60965;DHT22;46834;51.100;6.886;2023-02-08T15:46:06;9.30;29.50
60965;DHT22;46834;51.100;6.886;2023-02-08T15:48:44;9.20;29.50
60965;DHT22;46834;51.100;6.886;2023-02-08T15:51:12;9.20;29.50
60965;DHT22;46834;51.100;6.886;2023-02-08T15:53:43;9.20;29.50
60965;DHT22;46834;51.100;6.886;2023-02-08T15:56:15;9.20;29.40
60965;DHT22;46834;51.100;6.886;2023-02-08T15:58:48;9.10;29.30
60965;DHT22;46834;51.100;6.886;2023-02-08T16:01:18;9.10;29.30
60965;DHT22;46834;51.100;6.886;2023-02-08T16:03:48;9.10;29.40
60965;DHT22;46834;51.100;6.886;2023-02-08T16:06:28;9.00;29.20
60965;DHT22;46834;51.100;6.886;2023-02-08T16:08:59;9.00;29.00
60965;DHT22;46834;51.100;6.886;2023-02-08T16:11:30;8.90;29.10
60965;DHT22;46834;51.100;6.886;2023-02-08T16:14:00;8.90;29.20
60965;DHT22;46834;51.100;6.886;2023-02-08T16:19:25;8.80;28.90
60965;DHT22;46834;51.100;6.886;2023-02-08T16:22:14;8.80;28.80
60965;DHT22;46834;51.100;6.886;2023-02-08T16:24:47;8.70;29.20
60965;DHT22;46834;51.100;6.886;2023-02-08T16:27:35;8.70;29.30
60965;DHT22;46834;51.100;6.886;2023-02-08T16:30:01;8.60;28.70
60965;DHT22;46834;51.100;6.886;2023-02-08T16:32:36;8.60;29.20
60965;DHT22;46834;51.100;6.886;2023-02-08T16:35:17;8.50;29.00
60965;DHT22;46834;51.100;6.886;2023-02-08T16:37:54;8.40;28.80
60965;DHT22;46834;51.100;6.886;2023-02-08T16:43:27;8.30;29.00
60965;DHT22;46834;51.100;6.886;2023-02-08T16:48:41;8.10;28.60
60965;DHT22;46834;51.100;6.886;2023-02-08T16:51:23;8.00;28.80
60965;DHT22;46834;51.100;6.886;2023-02-08T16:53:54;7.90;28.60
60965;DHT22;46834;51.100;6.886;2023-02-08T16:56:25;7.90;28.80
60965;DHT22;46834;51.100;6.886;2023-02-08T16:58:51;7.80;28.80
60965;DHT22;46834;51.100;6.886;2023-02-08T17:01:18;7.70;28.80
60965;DHT22;46834;51.100;6.886;2023-02-08T17:03:45;7.60;28.60
60965;DHT22;46834;51.100;6.886;2023-02-08T17:08:54;7.50;28.30
60965;DHT22;46834;51.100;6.886;2023-02-08T17:11:21;7.40;28.60
60965;DHT22;46834;51.100;6.886;2023-02-08T17:13:46;7.30;28.60
60965;DHT22;46834;51.100;6.886;2023-02-08T17:16:20;7.20;28.50
60965;DHT22;46834;51.100;6.886;2023-02-08T17:18:48;7.20;28.40
60965;DHT22;46834;51.100;6.886;2023-02-08T17:21:14;7.10;28.50
60965;DHT22;46834;51.100;6.886;2023-02-08T17:23:41;7.10;28.60
60965;DHT22;46834;51.100;6.886;2023-02-08T17:26:34;7.00;28.50
60965;DHT22;46834;51.100;6.886;2023-02-08T17:29:04;7.00;28.40
60965;DHT22;46834;51.100;6.886;2023-02-08T17:31:30;6.90;28.60
60965;DHT22;46834;51.100;6.886;2023-02-08T17:33:56;6.80;28.50
60965;DHT22;46834;51.100;6.886;2023-02-08T17:36:30;6.80;28.50
60965;DHT22;46834;51.100;6.886;2023-02-08T17:38:57;6.70;28.50
60965;DHT22;46834;51.100;6.886;2023-02-08T17:41:23;6.70;28.60
60965;DHT22;46834;51.100;6.886;2023-02-08T17:43:54;6.60;28.50
60965;DHT22;46834;51.100;6.886;2023-02-08T17:46:23;6.60;28.60
60965;DHT22;46834;51.100;6.886;2023-02-08T17:48:51;6.50;28.50
60965;DHT22;46834;51.100;6.886;2023-02-08T17:51:20;6.40;28.50
60965;DHT22;46834;51.100;6.886;2023-02-08T17:53:47;6.40;28.50
60965;DHT22;46834;51.100;6.886;2023-02-08T17:56:15;6.40;28.50
60965;DHT22;46834;51.100;6.886;2023-02-08T17:58:43;6.30;28.50
60965;DHT22;46834;51.100;6.886;2023-02-08T18:01:18;6.30;29.00
60965;DHT22;46834;51.100;6.886;2023-02-08T18:03:47;6.20;28.40
60965;DHT22;46834;51.100;6.886;2023-02-08T18:06:15;6.20;28.60
60965;DHT22;46834;51.100;6.886;2023-02-08T18:08:41;6.10;28.60
60965;DHT22;46834;51.100;6.886;2023-02-08T18:11:09;6.10;28.60
60965;DHT22;46834;51.100;6.886;2023-02-08T18:13:47;6.10;28.60
60965;DHT22;46834;51.100;6.886;2023-02-08T18:16:25;6.00;28.60
60965;DHT22;46834;51.100;6.886;2023-02-08T18:18:55;6.00;28.50
60965;DHT22;46834;51.100;6.886;2023-02-08T18:21:24;5.90;29.20
60965;DHT22;46834;51.100;6.886;2023-02-08T18:23:50;5.90;29.30
60965;DHT22;46834;51.100;6.886;2023-02-08T18:26:20;5.80;29.30
60965;DHT22;46834;51.100;6.886;2023-02-08T18:28:49;5.80;29.30
60965;DHT22;46834;51.100;6.886;2023-02-08T18:31:16;5.80;29.40
60965;DHT22;46834;51.100;6.886;2023-02-08T18:33:46;5.70;29.40
60965;DHT22;46834;51.100;6.886;2023-02-08T18:36:12;5.70;29.40